createdAt,value
2022-08-28T00:01:56.305Z,3.73
2022-08-28T00:06:56.326Z,3.58
2022-08-28T00:11:56.309Z,3.57
2022-08-28T00:16:56.316Z,4.47
2022-08-28T00:21:56.350Z,4.74
2022-08-28T00:26:56.358Z,3.85
2022-08-28T00:31:56.356Z,4.19
2022-08-28T00:36:56.334Z,4.26
2022-08-28T00:41:56.725Z,3.91
2022-08-28T00:46:56.355Z,4.47
2022-08-28T00:51:56.330Z,4.38
2022-08-28T00:56:56.338Z,4.17
2022-08-28T01:01:56.401Z,4.1
2022-08-28T01:06:56.330Z,3.99
2022-08-28T01:11:56.386Z,4.06
2022-08-28T01:16:56.345Z,4.17
2022-08-28T01:21:56.431Z,3.79
2022-08-28T01:26:56.421Z,4.19
2022-08-28T01:31:56.383Z,4.72
2022-08-28T01:36:56.441Z,3.97
2022-08-28T01:41:56.354Z,3.89
2022-08-28T01:46:56.359Z,3.83
2022-08-28T01:51:56.362Z,3.96
2022-08-28T01:56:56.358Z,3.96
2022-08-28T02:01:56.435Z,4.27
2022-08-28T02:06:56.402Z,4.89
2022-08-28T02:11:56.415Z,4.3
2022-08-28T02:16:56.403Z,4.01
2022-08-28T02:21:56.374Z,4.16
2022-08-28T02:26:56.411Z,3.88
2022-08-28T02:31:56.407Z,3.65
2022-08-28T02:36:56.414Z,3.67
2022-08-28T02:41:56.384Z,4.73
2022-08-28T02:46:56.394Z,3.88
2022-08-28T02:51:56.384Z,3.83
2022-08-28T02:56:56.421Z,3.77
2022-08-28T03:01:56.426Z,3.91
2022-08-28T03:06:56.426Z,4.13
2022-08-28T03:11:56.403Z,3.96
2022-08-28T03:16:56.420Z,3.8
2022-08-28T03:21:56.406Z,3.81
2022-08-28T03:26:56.442Z,3.85
2022-08-28T03:31:56.444Z,4.12
2022-08-28T03:36:56.410Z,3.98
2022-08-28T03:41:56.446Z,3.97
2022-08-28T03:46:56.440Z,3.98
2022-08-28T03:51:56.449Z,4.14
2022-08-28T03:56:56.451Z,4.34
2022-08-28T04:01:56.466Z,4.85
2022-08-28T04:06:56.464Z,3.95
2022-08-28T04:11:56.458Z,3.84
2022-08-28T04:16:59.720Z,4.17
2022-08-28T04:21:56.479Z,4.12
2022-08-28T04:26:56.437Z,4.2
2022-08-28T04:31:56.514Z,4.16
2022-08-28T04:36:56.465Z,4.19
2022-08-28T04:41:56.475Z,3.93
2022-08-28T04:46:56.443Z,4.36
2022-08-28T04:51:56.493Z,4.27
2022-08-28T04:56:56.478Z,4.37
2022-08-28T05:01:56.536Z,4.93
2022-08-28T05:06:56.519Z,4.44
2022-08-28T05:11:56.501Z,4.33
2022-08-28T05:16:56.460Z,4.2
2022-08-28T05:21:56.485Z,4.14
2022-08-28T05:26:56.465Z,4.06
2022-08-28T05:31:56.520Z,4.04
2022-08-28T05:36:56.500Z,3.82
2022-08-28T05:41:56.473Z,4.16
2022-08-28T05:46:56.473Z,4.08
2022-08-28T05:51:56.508Z,4.15
2022-08-28T05:56:56.478Z,4.02
2022-08-28T06:01:58.902Z,3.87
2022-08-28T06:06:56.478Z,4.08
2022-08-28T06:11:56.484Z,3.92
2022-08-28T06:16:56.521Z,4.05
2022-08-28T06:21:56.489Z,4.08
2022-08-28T06:26:58.100Z,4.66
2022-08-28T06:31:56.552Z,5.18
2022-08-28T06:36:56.540Z,4.32
2022-08-28T06:41:56.504Z,4.14
2022-08-28T06:46:56.537Z,4.14
2022-08-28T06:51:56.550Z,4.81
2022-08-28T06:56:56.563Z,4.79
2022-08-28T07:01:56.720Z,4.66
2022-08-28T07:06:56.547Z,4.37
2022-08-28T07:11:56.516Z,4.25
2022-08-28T07:16:56.555Z,4.22
2022-08-28T07:21:56.524Z,4.84
2022-08-28T07:26:56.531Z,4.33
2022-08-28T07:31:56.534Z,5.47
2022-08-28T07:36:56.533Z,5.84
2022-08-28T07:41:56.535Z,6.13
2022-08-28T07:46:56.533Z,5.42
2022-08-28T07:51:56.545Z,4.5
2022-08-28T07:56:56.586Z,3.96
2022-08-28T08:01:56.563Z,3.68
2022-08-28T08:06:58.143Z,4.08
2022-08-28T08:11:56.568Z,3.64
2022-08-28T08:16:56.591Z,3.64
2022-08-28T08:21:56.600Z,3.87
2022-08-28T08:26:59.531Z,4.12
2022-08-28T08:31:56.567Z,3.8
2022-08-28T08:36:56.569Z,3.51
2022-08-28T08:41:56.617Z,3.91
2022-08-28T08:46:57.908Z,5.2
2022-08-28T08:51:56.577Z,3.74
2022-08-28T08:56:56.616Z,3.36
2022-08-28T09:01:56.633Z,3.79
2022-08-28T09:06:56.585Z,3.38
2022-08-28T09:11:57.170Z,3.45
2022-08-28T09:16:56.591Z,3.74
2022-08-28T09:21:56.600Z,2.88
2022-08-28T09:26:56.602Z,3.77
2022-08-28T09:31:56.608Z,2.95
2022-08-28T09:36:56.637Z,2.22
2022-08-28T09:41:56.650Z,3.03
2022-08-28T09:46:56.613Z,2.85
2022-08-28T09:51:56.617Z,2.92
2022-08-28T09:56:56.651Z,2.38
2022-08-28T10:01:56.655Z,2.2
2022-08-28T10:06:56.660Z,2.41
2022-08-28T10:11:56.660Z,2.55
2022-08-28T10:16:56.664Z,2.7
2022-08-28T10:21:56.626Z,2.68
2022-08-28T10:26:56.673Z,2.35
2022-08-28T10:31:56.638Z,2.48
2022-08-28T10:36:56.643Z,3.05
2022-08-28T10:41:56.705Z,2.46
2022-08-28T10:46:56.667Z,1.9
2022-08-28T10:51:56.649Z,1.85
2022-08-28T10:56:56.854Z,2.86
2022-08-28T11:01:56.672Z,2.69
2022-08-28T11:06:56.677Z,2.28
2022-08-28T11:11:59.711Z,2.2
2022-08-28T11:16:56.784Z,1.63
2022-08-28T11:21:56.665Z,2.57
2022-08-28T11:26:56.665Z,2.22
2022-08-28T11:31:56.710Z,2.61
2022-08-28T11:36:56.707Z,2.8
2022-08-28T11:41:56.671Z,2.49
2022-08-28T11:46:56.726Z,2.69
2022-08-28T11:51:56.678Z,2.52
2022-08-28T11:56:56.681Z,2.5
2022-08-28T12:01:56.735Z,2.45
2022-08-28T12:06:56.689Z,2.09
2022-08-28T12:11:56.723Z,1.84
2022-08-28T12:16:56.738Z,2.09
2022-08-28T12:21:56.727Z,2.05
2022-08-28T12:26:57.187Z,1.88
2022-08-28T12:31:56.717Z,1.6
2022-08-28T12:36:56.706Z,1.79
2022-08-28T12:41:56.771Z,1.8
2022-08-28T12:46:56.735Z,2.08
2022-08-28T12:51:56.716Z,2.04
2022-08-28T12:56:56.711Z,1.92
2022-08-28T13:01:56.800Z,1.65
2022-08-28T13:06:56.722Z,1.93
2022-08-28T13:11:56.738Z,2.2
2022-08-28T13:16:56.788Z,2.06
2022-08-28T13:21:56.727Z,2.01
2022-08-28T13:26:56.733Z,1.74
2022-08-28T13:31:56.761Z,1.22
2022-08-28T13:36:56.740Z,0.94
2022-08-28T13:41:56.749Z,1.35
2022-08-28T13:46:56.775Z,0.99
2022-08-28T13:53:27.398Z,0.98
2022-08-28T13:58:27.415Z,1.02
2022-08-28T14:03:27.380Z,1.03
2022-08-28T14:08:27.382Z,1.38
2022-08-28T14:13:27.414Z,1.18
2022-08-28T14:18:27.389Z,0.83
2022-08-28T14:23:27.424Z,0.86
2022-08-28T14:28:27.422Z,0.97
2022-08-28T14:33:27.389Z,0.91
2022-08-28T14:38:27.405Z,0.93
2022-08-28T14:43:27.417Z,0.82
2022-08-28T14:48:27.409Z,0.88
2022-08-28T14:53:27.411Z,0.93
2022-08-28T14:58:27.412Z,0.89
2022-08-28T15:03:27.428Z,1.01
2022-08-28T15:08:27.422Z,1
2022-08-28T15:13:31.466Z,1.03
2022-08-28T15:18:27.420Z,1.02
2022-08-28T15:23:27.423Z,0.96
2022-08-28T15:28:27.420Z,0.89
2022-08-28T15:33:27.464Z,1.03
2022-08-28T15:38:27.435Z,1.18
2022-08-28T15:43:27.473Z,1.14
2022-08-28T15:48:27.463Z,1.18
2022-08-28T15:53:27.445Z,0.91
2022-08-28T15:58:27.484Z,0.94
2022-08-28T16:03:27.448Z,1.35
2022-08-28T16:08:27.486Z,1.42
2022-08-28T16:13:27.463Z,1.29
2022-08-28T16:18:27.495Z,1.25
2022-08-28T16:23:27.464Z,1.16
2022-08-28T16:28:27.463Z,0.95
2022-08-28T16:33:27.498Z,1
2022-08-28T16:38:27.498Z,1.01
2022-08-28T16:43:27.478Z,0.98
2022-08-28T16:48:27.493Z,1.12
2022-08-28T16:53:27.507Z,1.11
2022-08-28T16:58:27.482Z,1.22
2022-08-28T17:03:27.527Z,1.25
2022-08-28T17:08:27.523Z,1.4
2022-08-28T17:13:27.487Z,1.45
2022-08-28T17:18:27.525Z,1.46
2022-08-28T17:23:27.501Z,1.52
2022-08-28T17:28:27.517Z,1.52
2022-08-28T17:33:27.538Z,1.69
2022-08-28T17:38:27.510Z,1.64
2022-08-28T17:43:27.512Z,1.64
2022-08-28T17:48:27.524Z,1.6
2022-08-28T17:53:27.854Z,1.62
2022-08-28T17:58:27.524Z,1.68
2022-08-28T18:03:27.531Z,1.83
2022-08-28T18:08:27.525Z,1.77
2022-08-28T18:13:27.548Z,1.81
2022-08-28T18:18:33.024Z,1.85
2022-08-28T18:23:27.526Z,1.79
2022-08-28T18:28:27.567Z,1.84
2022-08-28T18:33:27.571Z,2
2022-08-28T18:38:27.544Z,1.96
2022-08-28T18:43:27.539Z,2.07
2022-08-28T18:48:27.573Z,2.34
2022-08-28T18:53:27.545Z,2.01
2022-08-28T18:58:27.547Z,2.29
2022-08-28T19:03:27.573Z,2.83
2022-08-28T19:08:27.571Z,3.51
2022-08-28T19:13:27.576Z,3.29
2022-08-28T19:18:27.555Z,2.66
2022-08-28T19:23:27.578Z,2.49
2022-08-28T19:28:27.602Z,2.57
2022-08-28T19:33:27.597Z,2.31
2022-08-28T19:38:28.673Z,2.3
2022-08-28T19:43:31.198Z,2.41
2022-08-28T19:48:27.591Z,2.42
2022-08-28T19:53:27.614Z,2.39
2022-08-28T19:58:27.584Z,2.63
2022-08-28T20:03:27.617Z,2.68
2022-08-28T20:08:27.650Z,2.62
2022-08-28T20:13:27.608Z,2.59
2022-08-28T20:18:27.593Z,2.73
2022-08-28T20:23:27.617Z,2.58
2022-08-28T20:28:27.631Z,2.64
2022-08-28T20:33:27.604Z,2.68
2022-08-28T20:38:27.619Z,2.8
2022-08-28T20:43:27.591Z,2.78
2022-08-28T20:48:27.613Z,2.7
2022-08-28T20:53:37.176Z,2.85
2022-08-28T20:58:27.644Z,2.8
2022-08-28T21:03:27.755Z,2.78
2022-08-28T21:08:27.664Z,2.62
2022-08-28T21:13:27.653Z,2.69
2022-08-28T21:18:28.218Z,2.94
2022-08-28T21:23:27.679Z,2.89
2022-08-28T21:28:27.626Z,3.02
2022-08-28T21:33:27.672Z,2.95
2022-08-28T21:38:27.633Z,3.05
2022-08-28T21:43:27.633Z,3.02
2022-08-28T21:48:27.660Z,2.82
2022-08-28T21:53:27.666Z,2.88
2022-08-28T21:58:27.665Z,3.04
2022-08-28T22:03:27.635Z,3.16
2022-08-28T22:08:27.683Z,3.25
2022-08-28T22:13:27.650Z,3.36
2022-08-28T22:18:32.041Z,3.52
2022-08-28T22:23:27.656Z,3.53
2022-08-28T22:28:27.657Z,3.16
2022-08-28T22:33:27.692Z,3.21
2022-08-28T22:38:27.702Z,3.22
2022-08-28T22:43:27.664Z,2.99
2022-08-28T22:48:27.678Z,3.01
2022-08-28T22:53:27.708Z,3.11
2022-08-28T22:58:27.680Z,3.09
2022-08-28T23:03:27.810Z,3.1
2022-08-28T23:08:30.755Z,3.05
2022-08-28T23:13:27.685Z,3.02
2022-08-28T23:18:27.776Z,3
2022-08-28T23:23:27.686Z,2.92
2022-08-28T23:28:27.709Z,3.06
2022-08-28T23:33:27.691Z,3.45
2022-08-28T23:38:27.699Z,3.39
2022-08-28T23:43:27.720Z,3.19
2022-08-28T23:48:27.750Z,3.04
2022-08-28T23:53:27.731Z,2.79
2022-08-28T23:58:28.463Z,2.92
